createdAt,value
2022-10-22T00:01:00.747Z,100176.34
2022-10-22T00:03:28.373Z,100168.44
2022-10-22T00:05:57.559Z,100155.69
2022-10-22T00:08:25.103Z,100154.03
2022-10-22T00:10:52.862Z,100160.28
2022-10-22T00:13:20.809Z,100160.53
2022-10-22T00:15:48.407Z,100167.88
2022-10-22T00:18:15.997Z,100167.88
2022-10-22T00:20:43.665Z,100158.91
2022-10-22T00:23:11.135Z,100166.78
2022-10-22T00:25:38.651Z,100165.16
2022-10-22T00:28:06.238Z,100164.66
2022-10-22T00:30:33.795Z,100153.78
2022-10-22T00:33:01.298Z,100157.94
2022-10-22T00:35:28.805Z,100154.97
2022-10-22T00:37:56.277Z,100149.03
2022-10-22T00:40:23.819Z,100142.78
2022-10-22T00:42:51.296Z,100148.22
2022-10-22T00:45:27.030Z,100150.94
2022-10-22T00:48:08.106Z,100147.12
2022-10-22T00:50:41.058Z,100136.28
2022-10-22T00:53:21.815Z,100124.59
2022-10-22T00:55:53.739Z,100124.84
2022-10-22T00:58:25.327Z,100131.09
2022-10-22T01:00:53.172Z,100137.84
2022-10-22T01:03:23.332Z,100137.84
2022-10-22T01:05:57.110Z,100141.63
2022-10-22T01:08:27.314Z,100145.44
2022-10-22T01:10:57.513Z,100144.59
2022-10-22T01:13:37.765Z,100146.25
2022-10-22T01:16:13.728Z,100140.22
2022-10-22T01:19:32.193Z,100138.91
2022-10-22T01:22:33.431Z,100142.09
2022-10-22T01:25:09.252Z,100146.72
2022-10-22T01:27:44.114Z,100137.69
2022-10-22T01:30:15.842Z,100134.91
2022-10-22T01:32:53.531Z,100141.31
2022-10-22T01:35:27.800Z,100136.06
2022-10-22T01:37:59.507Z,100141.16
2022-10-22T01:40:28.146Z,100146.00
2022-10-22T01:43:08.945Z,100141.41
2022-10-22T01:45:51.502Z,100134.19
2022-10-22T01:48:51.463Z,100134.25
2022-10-22T01:51:52.649Z,100131.53
2022-10-22T01:54:38.790Z,100121.75
2022-10-22T01:57:14.667Z,100120.69
2022-10-22T01:59:49.774Z,100126.62
2022-10-22T02:02:20.196Z,100114.13
2022-10-22T02:04:55.080Z,100116.25
2022-10-22T02:07:26.750Z,100124.87
2022-10-22T02:09:58.394Z,100128.09
2022-10-22T02:12:28.158Z,100128.00
2022-10-22T02:14:59.474Z,100123.06
2022-10-22T02:17:30.570Z,100120.28
2022-10-22T02:20:02.566Z,100134.31
2022-10-22T02:22:33.347Z,100127.97
2022-10-22T02:25:01.571Z,100128.97
2022-10-22T02:27:33.374Z,100127.47
2022-10-22T02:30:18.788Z,100121.16
2022-10-22T02:32:59.119Z,100124.81
2022-10-22T02:35:28.869Z,100130.41
2022-10-22T02:37:58.139Z,100130.56
2022-10-22T02:40:28.668Z,100128.00
2022-10-22T02:42:58.466Z,100110.81
2022-10-22T02:45:26.333Z,100113.09
2022-10-22T02:47:53.847Z,100118.44
2022-10-22T02:50:21.656Z,100129.91
2022-10-22T02:52:49.137Z,100131.00
2022-10-22T02:55:16.783Z,100148.69
2022-10-22T02:57:44.283Z,100142.00
2022-10-22T03:00:12.392Z,100144.25
2022-10-22T03:02:39.895Z,100142.75
2022-10-22T03:05:08.010Z,100147.47
2022-10-22T03:07:36.131Z,100144.63
2022-10-22T03:10:03.926Z,100147.69
2022-10-22T03:12:31.407Z,100151.25
2022-10-22T03:14:59.429Z,100145.09
2022-10-22T03:17:26.913Z,100139.47
2022-10-22T03:19:54.385Z,100137.94
2022-10-22T03:22:28.499Z,100132.25
2022-10-22T03:25:01.410Z,100125.06
2022-10-22T03:27:31.076Z,100127.06
2022-10-22T03:30:00.619Z,100129.19
2022-10-22T03:32:30.358Z,100128.81
2022-10-22T03:34:57.847Z,100120.09
2022-10-22T03:37:26.754Z,100108.13
2022-10-22T03:39:55.644Z,100101.87
2022-10-22T03:42:24.658Z,100094.47
2022-10-22T03:44:54.530Z,100088.00
2022-10-22T03:47:24.385Z,100085.66
2022-10-22T03:49:52.844Z,100086.50
2022-10-22T03:52:20.353Z,100086.84
2022-10-22T03:54:47.814Z,100086.50
2022-10-22T03:57:17.749Z,100103.53
2022-10-22T03:59:51.112Z,100091.66
2022-10-22T04:02:18.761Z,100098.72
2022-10-22T04:04:46.237Z,100104.81
2022-10-22T04:07:14.584Z,100109.16
2022-10-22T04:09:43.064Z,100118.34
2022-10-22T04:12:10.615Z,100115.28
2022-10-22T04:14:38.103Z,100117.41
2022-10-22T04:17:07.077Z,100112.69
2022-10-22T04:19:34.600Z,100102.00
2022-10-22T04:22:02.485Z,100104.13
2022-10-22T04:24:31.980Z,100110.09
2022-10-22T04:27:00.013Z,100110.09
2022-10-22T04:29:29.996Z,100118.56
2022-10-22T04:31:57.825Z,100113.75
2022-10-22T04:34:28.441Z,100113.75
2022-10-22T04:36:55.981Z,100106.69
2022-10-22T04:39:23.629Z,100111.28
2022-10-22T04:41:51.186Z,100106.13
2022-10-22T04:44:18.822Z,100107.41
2022-10-22T04:46:46.838Z,100100.12
2022-10-22T04:49:16.814Z,100108.94
2022-10-22T04:51:44.305Z,100106.00
2022-10-22T04:54:15.019Z,100090.59
2022-10-22T04:56:42.763Z,100078.59
2022-10-22T04:59:13.066Z,100091.06
2022-10-22T05:01:43.987Z,100097.53
2022-10-22T05:04:19.674Z,100099.06
2022-10-22T05:06:47.379Z,100101.28
2022-10-22T05:09:21.079Z,100100.47
2022-10-22T05:11:51.343Z,100098.81
2022-10-22T05:14:23.274Z,100109.62
2022-10-22T05:16:52.321Z,100103.75
2022-10-22T05:19:24.932Z,100102.94
2022-10-22T05:22:00.259Z,100101.28
2022-10-22T05:24:28.734Z,100099.19
2022-10-22T05:26:58.006Z,100107.06
2022-10-22T05:29:26.297Z,100101.19
2022-10-22T05:31:54.246Z,100099.41
2022-10-22T05:34:24.373Z,100112.00
2022-10-22T05:36:51.888Z,100107.78
2022-10-22T05:39:22.043Z,100109.78
2022-10-22T05:41:49.548Z,100098.84
2022-10-22T05:44:17.045Z,100095.22
2022-10-22T05:46:44.610Z,100097.63
2022-10-22T05:49:16.576Z,100100.44
2022-10-22T05:51:46.852Z,100105.47
2022-10-22T05:54:22.188Z,100107.81
2022-10-22T05:56:49.903Z,100105.84
2022-10-22T05:59:17.730Z,100112.50
2022-10-22T06:01:45.368Z,100121.91
2022-10-22T06:04:14.314Z,100108.28
2022-10-22T06:06:48.415Z,100119.19
2022-10-22T06:09:27.940Z,100133.28
2022-10-22T06:11:56.933Z,100135.41
2022-10-22T06:14:25.407Z,100135.00
2022-10-22T06:16:54.141Z,100144.88
2022-10-22T06:19:25.724Z,100152.41
2022-10-22T06:21:55.741Z,100150.94
2022-10-22T06:24:23.281Z,100133.22
2022-10-22T06:26:56.274Z,100137.78
2022-10-22T06:29:23.781Z,100136.91
2022-10-22T06:31:51.298Z,100134.38
2022-10-22T06:34:23.696Z,100140.31
2022-10-22T06:36:51.715Z,100140.81
2022-10-22T06:39:19.434Z,100147.00
2022-10-22T06:41:47.404Z,100147.81
2022-10-22T06:44:17.152Z,100142.09
2022-10-22T06:46:45.103Z,100154.34
2022-10-22T06:49:16.410Z,100172.06
2022-10-22T06:51:46.474Z,100169.88
2022-10-22T06:54:14.271Z,100163.03
2022-10-22T06:56:42.140Z,100164.16
2022-10-22T06:59:09.662Z,100162.53
2022-10-22T07:01:38.729Z,100151.78
2022-10-22T07:04:08.914Z,100153.16
2022-10-22T07:06:36.738Z,100147.00
2022-10-22T07:09:04.482Z,100152.69
2022-10-22T07:11:46.661Z,100163.16
2022-10-22T07:14:16.685Z,100163.56
2022-10-22T07:16:45.681Z,100157.19
2022-10-22T07:19:16.801Z,100161.00
2022-10-22T07:21:45.959Z,100156.09
2022-10-22T07:24:13.506Z,100146.19
2022-10-22T07:26:43.385Z,100149.06
2022-10-22T07:29:10.933Z,100155.87
2022-10-22T07:31:38.468Z,100154.22
2022-10-22T07:34:06.539Z,100154.66
2022-10-22T07:36:34.271Z,100151.53
2022-10-22T07:39:02.522Z,100148.91
2022-10-22T07:41:32.876Z,100149.22
2022-10-22T07:44:00.978Z,100154.78
2022-10-22T07:46:29.009Z,100143.97
2022-10-22T07:48:56.642Z,100142.94
2022-10-22T07:51:24.383Z,100142.41
2022-10-22T07:53:51.964Z,100146.56
2022-10-22T07:56:19.833Z,100148.78
2022-10-22T07:58:47.351Z,100151.47
2022-10-22T08:01:15.479Z,100153.13
2022-10-22T08:03:45.505Z,100155.00
2022-10-22T08:06:16.159Z,100164.19
2022-10-22T08:08:45.723Z,100162.03
2022-10-22T08:11:15.837Z,100157.94
2022-10-22T08:13:45.695Z,100156.91
2022-10-22T08:16:16.001Z,100164.53
2022-10-22T08:18:44.037Z,100166.75
2022-10-22T08:21:13.262Z,100155.13
2022-10-22T08:23:41.050Z,100155.47
2022-10-22T08:26:08.613Z,100146.78
2022-10-22T08:28:37.230Z,100149.56
2022-10-22T08:31:09.483Z,100154.53
2022-10-22T08:33:41.079Z,100158.69
2022-10-22T08:36:11.570Z,100147.88
2022-10-22T08:38:39.129Z,100159.34
2022-10-22T08:41:21.655Z,100162.56
2022-10-22T08:44:40.058Z,100156.53
2022-10-22T08:47:40.973Z,100167.72
2022-10-22T08:50:13.437Z,100156.00
2022-10-22T08:52:45.478Z,100163.16
2022-10-22T08:55:17.030Z,100158.59
2022-10-22T08:57:52.148Z,100163.78
2022-10-22T09:00:32.056Z,100155.63
2022-10-22T09:03:10.248Z,100164.44
2022-10-22T09:05:49.685Z,100157.38
2022-10-22T09:08:20.844Z,100153.03
2022-10-22T09:11:03.011Z,100158.78
2022-10-22T09:13:31.005Z,100166.97
2022-10-22T09:16:20.453Z,100164.81
2022-10-22T09:19:17.221Z,100166.72
2022-10-22T09:21:47.521Z,100165.34
2022-10-22T09:24:29.549Z,100153.59
2022-10-22T09:27:02.479Z,100150.03
2022-10-22T09:29:34.888Z,100157.12
2022-10-22T09:32:02.640Z,100155.50
2022-10-22T09:34:30.845Z,100163.69
2022-10-22T09:37:03.323Z,100169.16
2022-10-22T09:39:37.958Z,100172.16
2022-10-22T09:42:07.545Z,100175.72
2022-10-22T09:44:37.572Z,100177.09
2022-10-22T09:47:37.426Z,100169.44
2022-10-22T09:50:38.880Z,100178.22
2022-10-22T09:53:18.472Z,100180.38
2022-10-22T09:55:51.698Z,100159.03
2022-10-22T09:58:20.447Z,100153.03
2022-10-22T10:00:59.855Z,100162.03
2022-10-22T10:03:30.555Z,100156.78
2022-10-22T10:06:05.858Z,100164.47
2022-10-22T10:08:34.777Z,100163.69
2022-10-22T10:11:11.737Z,100162.84
2022-10-22T10:13:55.107Z,100159.31
2022-10-22T10:16:54.526Z,100156.31
2022-10-22T10:19:40.689Z,100155.75
2022-10-22T10:22:14.170Z,100135.47
2022-10-22T10:24:56.704Z,100138.22
2022-10-22T10:27:42.747Z,100149.97
2022-10-22T10:30:18.045Z,100157.62
2022-10-22T10:33:23.404Z,100152.94
2022-10-22T10:36:33.161Z,100149.75
2022-10-22T10:39:32.893Z,100147.00
2022-10-22T10:42:14.273Z,100142.56
2022-10-22T10:45:11.154Z,100142.47
2022-10-22T10:47:50.851Z,100145.94
2022-10-22T10:50:38.162Z,100148.41
2022-10-22T10:53:30.342Z,100156.56
2022-10-22T10:56:05.889Z,100160.44
2022-10-22T10:59:00.734Z,100165.87
2022-10-22T11:01:35.962Z,100167.53
2022-10-22T11:04:17.510Z,100169.22
2022-10-22T11:06:46.591Z,100163.50
2022-10-22T11:09:31.305Z,100161.50
2022-10-22T11:12:05.490Z,100160.41
2022-10-22T11:15:07.466Z,100156.34
2022-10-22T11:17:43.565Z,100160.53
2022-10-22T11:20:29.332Z,100147.34
2022-10-22T11:23:21.041Z,100144.03
2022-10-22T11:25:51.010Z,100146.47
2022-10-22T11:28:24.793Z,100143.41
2022-10-22T11:31:01.955Z,100135.94
2022-10-22T11:33:39.904Z,100136.53
2022-10-22T11:36:10.384Z,100125.84
2022-10-22T11:38:38.877Z,100123.09
2022-10-22T11:41:17.154Z,100121.94
2022-10-22T11:43:57.672Z,100125.28
2022-10-22T11:46:25.352Z,100118.66
2022-10-22T11:49:14.173Z,100123.31
2022-10-22T11:51:43.752Z,100121.78
2022-10-22T11:54:31.371Z,100111.84
2022-10-22T11:57:20.237Z,100109.62
2022-10-22T11:59:48.187Z,100111.75
2022-10-22T12:02:44.789Z,100116.62
2022-10-22T12:05:40.235Z,100105.91
2022-10-22T12:08:19.460Z,100110.56
2022-10-22T12:11:01.443Z,100111.56
2022-10-22T12:13:35.715Z,100105.97
2022-10-22T12:16:05.186Z,100103.22
2022-10-22T12:18:41.819Z,100104.84
2022-10-22T12:21:17.556Z,100104.09
2022-10-22T12:23:47.672Z,100100.66
2022-10-22T12:26:34.745Z,100095.88
2022-10-22T12:29:10.837Z,100091.09
2022-10-22T12:31:40.590Z,100094.13
2022-10-22T12:34:08.127Z,100084.91
2022-10-22T12:36:37.488Z,100078.13
2022-10-22T12:39:13.342Z,100086.44
2022-10-22T12:41:41.394Z,100085.66
2022-10-22T12:44:12.633Z,100084.63
2022-10-22T12:46:40.706Z,100079.12
2022-10-22T12:49:17.538Z,100086.56
2022-10-22T12:51:48.739Z,100098.94
2022-10-22T12:54:24.918Z,100098.97
2022-10-22T12:56:53.099Z,100099.53
2022-10-22T12:59:39.074Z,100097.63
2022-10-22T13:02:18.568Z,100105.84
2022-10-22T13:05:13.230Z,100092.50
2022-10-22T13:07:43.373Z,100096.31
2022-10-22T13:10:41.866Z,100107.00
2022-10-22T13:13:33.450Z,100091.69
2022-10-22T13:16:21.457Z,100094.44
2022-10-22T13:18:50.791Z,100091.13
2022-10-22T13:21:35.760Z,100091.13
2022-10-22T13:24:20.964Z,100097.97
2022-10-22T13:26:54.109Z,100099.62
2022-10-22T13:29:23.607Z,100102.06
2022-10-22T13:31:53.314Z,100088.13
2022-10-22T13:34:23.844Z,100083.19
2022-10-22T13:36:51.871Z,100080.94
2022-10-22T13:39:21.920Z,100092.41
2022-10-22T13:41:52.386Z,100092.94
2022-10-22T13:44:22.452Z,100090.72
2022-10-22T13:46:50.520Z,100097.81
2022-10-22T13:49:23.341Z,100101.94
2022-10-22T13:51:53.591Z,100103.34
2022-10-22T13:54:25.815Z,100092.41
2022-10-22T13:56:56.336Z,100101.44
2022-10-22T13:59:24.205Z,100114.87
2022-10-22T14:01:54.822Z,100106.97
2022-10-22T14:04:24.651Z,100116.00
2022-10-22T14:06:52.149Z,100104.78
2022-10-22T14:09:20.806Z,100114.66
2022-10-22T14:11:48.311Z,100104.53
2022-10-22T14:14:17.285Z,100099.06
2022-10-22T14:16:45.078Z,100107.78
2022-10-22T14:19:18.025Z,100123.38
2022-10-22T14:21:45.614Z,100121.75
2022-10-22T14:24:13.586Z,100116.84
2022-10-22T14:26:41.417Z,100111.13
2022-10-22T14:29:10.174Z,100105.37
2022-10-22T14:34:08.379Z,100099.41
2022-10-22T14:36:35.945Z,100095.59
2022-10-22T14:39:04.071Z,100099.19
2022-10-22T14:41:31.889Z,100098.91
2022-10-22T14:43:59.888Z,100112.03
2022-10-22T14:46:27.505Z,100104.94
2022-10-22T14:48:54.965Z,100103.88
2022-10-22T14:51:24.053Z,100115.63
2022-10-22T14:53:51.652Z,100117.81
2022-10-22T14:56:21.992Z,100110.44
2022-10-22T14:58:51.042Z,100120.00
2022-10-22T15:01:18.822Z,100127.94
2022-10-22T15:03:46.405Z,100121.09
2022-10-22T15:06:14.115Z,100115.91
2022-10-22T15:08:41.671Z,100110.16
2022-10-22T15:11:12.729Z,100121.09
2022-10-22T15:13:41.291Z,100120.53
2022-10-22T15:16:10.734Z,100122.19
2022-10-22T15:18:38.387Z,100120.81
2022-10-22T15:21:09.333Z,100118.09
2022-10-22T15:23:39.175Z,100117.00
2022-10-22T15:26:10.792Z,100112.91
2022-10-22T15:28:39.773Z,100121.91
2022-10-22T15:31:08.388Z,100120.00
2022-10-22T15:33:36.001Z,100119.72
2022-10-22T15:36:15.194Z,100121.91
2022-10-22T15:38:43.095Z,100119.72
2022-10-22T15:41:13.573Z,100117.53
2022-10-22T15:43:41.231Z,100115.91
2022-10-22T15:46:20.488Z,100124.34
2022-10-22T15:48:48.524Z,100137.19
2022-10-22T15:51:20.276Z,100148.06
2022-10-22T15:53:56.310Z,100147.78
2022-10-22T15:56:28.163Z,100148.31
2022-10-22T15:58:57.577Z,100152.13
2022-10-22T16:01:26.508Z,100152.87
2022-10-22T16:04:02.469Z,100160.50
2022-10-22T16:06:35.416Z,100166.44
2022-10-22T16:09:06.700Z,100172.94
2022-10-22T16:11:34.497Z,100172.31
2022-10-22T16:14:02.449Z,100182.13
2022-10-22T16:16:32.876Z,100182.63
2022-10-22T16:19:00.951Z,100192.13
2022-10-22T16:21:30.836Z,100190.19
2022-10-22T16:24:05.927Z,100201.88
2022-10-22T16:26:34.643Z,100204.56
2022-10-22T16:29:02.228Z,100216.22
2022-10-22T16:31:30.555Z,100216.19
2022-10-22T16:33:58.927Z,100236.63
2022-10-22T16:36:26.446Z,100236.09
2022-10-22T16:38:56.317Z,100233.63
2022-10-22T16:41:25.759Z,100239.06
2022-10-22T16:43:56.513Z,100245.84
2022-10-22T16:46:25.699Z,100242.84
2022-10-22T16:48:55.682Z,100253.22
2022-10-22T16:51:25.991Z,100251.28
2022-10-22T16:53:54.891Z,100252.34
2022-10-22T16:56:22.496Z,100251.53
2022-10-22T16:58:55.068Z,100258.06
2022-10-22T17:01:25.914Z,100263.47
2022-10-22T17:03:55.090Z,100265.62
2022-10-22T17:06:26.215Z,100266.63
2022-10-22T17:08:54.310Z,100266.84
2022-10-22T17:11:24.338Z,100266.81
2022-10-22T17:13:54.546Z,100270.03
2022-10-22T17:16:26.020Z,100266.94
2022-10-22T17:18:57.199Z,100263.66
2022-10-22T17:21:27.575Z,100255.97
2022-10-22T17:24:00.943Z,100248.56
2022-10-22T17:26:28.611Z,100256.34
2022-10-22T17:28:56.162Z,100261.69
2022-10-22T17:31:29.031Z,100261.06
2022-10-22T17:33:59.843Z,100267.50
2022-10-22T17:36:31.797Z,100270.94
2022-10-22T17:39:06.879Z,100279.88
2022-10-22T17:41:37.046Z,100278.47
2022-10-22T17:44:09.861Z,100277.34
2022-10-22T17:46:39.967Z,100276.53
2022-10-22T17:49:18.710Z,100284.09
2022-10-22T17:51:47.110Z,100289.81
2022-10-22T17:54:17.707Z,100300.03
2022-10-22T17:56:45.363Z,100292.97
2022-10-22T17:59:19.869Z,100292.72
2022-10-22T18:01:47.795Z,100283.88
2022-10-22T18:04:19.599Z,100288.50
2022-10-22T18:06:48.641Z,100292.81
2022-10-22T18:09:19.296Z,100300.88
2022-10-22T18:11:51.341Z,100313.91
2022-10-22T18:14:20.710Z,100307.06
2022-10-22T18:16:49.103Z,100304.84
2022-10-22T18:19:20.095Z,100314.09
2022-10-22T18:21:50.662Z,100317.63
2022-10-22T18:24:18.576Z,100308.66
2022-10-22T18:26:46.085Z,100315.63
2022-10-22T18:29:19.134Z,100315.41
2022-10-22T18:31:47.047Z,100327.09
2022-10-22T18:34:16.584Z,100322.13
2022-10-22T18:36:49.152Z,100334.66
2022-10-22T18:39:17.094Z,100336.28
2022-10-22T18:41:44.890Z,100340.00
2022-10-22T18:44:15.517Z,100337.78
2022-10-22T18:46:46.221Z,100352.44
2022-10-22T18:49:20.435Z,100351.06
2022-10-22T18:51:52.614Z,100337.97
2022-10-22T18:54:23.984Z,100348.50
2022-10-22T18:56:52.980Z,100349.25
2022-10-22T18:59:25.789Z,100351.28
2022-10-22T19:01:55.025Z,100343.38
2022-10-22T19:04:25.183Z,100323.22
2022-10-22T19:06:52.680Z,100350.94
2022-10-22T19:09:20.319Z,100358.03
2022-10-22T19:11:47.856Z,100351.44
2022-10-22T19:14:19.362Z,100351.69
2022-10-22T19:16:47.022Z,100355.37
2022-10-22T19:19:20.599Z,100349.28
2022-10-22T19:21:48.944Z,100352.37
2022-10-22T19:24:21.717Z,100363.41
2022-10-22T19:26:50.742Z,100353.53
2022-10-22T19:29:20.545Z,100368.03
2022-10-22T19:31:50.545Z,100367.28
2022-10-22T19:34:18.402Z,100363.84
2022-10-22T19:36:46.165Z,100366.09
2022-10-22T19:39:17.588Z,100376.03
2022-10-22T19:41:47.646Z,100377.00
2022-10-22T19:44:19.766Z,100377.13
2022-10-22T19:46:47.461Z,100389.72
2022-10-22T19:49:18.859Z,100382.06
2022-10-22T19:51:49.771Z,100390.34
2022-10-22T19:54:18.785Z,100378.47
2022-10-22T19:56:47.064Z,100392.00
2022-10-22T19:59:20.507Z,100401.69
2022-10-22T20:01:48.018Z,100407.78
2022-10-22T20:04:17.753Z,100410.25
2022-10-22T20:06:47.097Z,100415.69
2022-10-22T20:09:14.999Z,100415.91
2022-10-22T20:11:43.435Z,100433.25
2022-10-22T20:14:10.918Z,100428.06
2022-10-22T20:16:40.206Z,100427.00
2022-10-22T20:19:08.800Z,100421.69
2022-10-22T20:21:37.765Z,100429.94
2022-10-22T20:24:05.469Z,100436.91
2022-10-22T20:26:32.991Z,100426.50
2022-10-22T20:29:00.844Z,100428.62
2022-10-22T20:31:30.124Z,100439.56
2022-10-22T20:34:01.029Z,100443.44
2022-10-22T20:36:30.046Z,100437.91
2022-10-22T20:39:02.778Z,100435.28
2022-10-22T20:41:30.625Z,100434.47
2022-10-22T20:43:58.450Z,100435.50
2022-10-22T20:46:29.154Z,100433.09
2022-10-22T20:49:05.305Z,100426.38
2022-10-22T20:51:33.127Z,100436.87
2022-10-22T20:54:00.634Z,100448.28
2022-10-22T20:56:29.168Z,100443.09
2022-10-22T20:59:05.080Z,100449.81
2022-10-22T21:02:00.827Z,100452.50
2022-10-22T21:04:29.266Z,100456.59
2022-10-22T21:06:57.995Z,100453.03
2022-10-22T21:09:25.841Z,100442.75
2022-10-22T21:14:26.808Z,100450.37
2022-10-22T21:16:54.302Z,100460.00
2022-10-22T21:19:24.498Z,100460.31
2022-10-22T21:21:52.266Z,100459.72
2022-10-22T21:24:24.530Z,100463.50
2022-10-22T21:26:52.773Z,100461.66
2022-10-22T21:29:21.418Z,100468.59
2022-10-22T21:31:49.133Z,100471.91
2022-10-22T21:34:17.260Z,100463.19
2022-10-22T21:36:45.216Z,100465.28
2022-10-22T21:39:14.298Z,100462.00
2022-10-22T21:41:41.817Z,100468.59
2022-10-22T21:44:11.662Z,100463.50
2022-10-22T21:46:39.151Z,100457.25
2022-10-22T21:49:06.913Z,100451.88
2022-10-22T21:51:38.274Z,100449.59
2022-10-22T21:54:06.030Z,100443.72
2022-10-22T21:56:37.646Z,100445.50
2022-10-22T21:59:07.616Z,100436.66
2022-10-22T22:01:35.827Z,100446.66
2022-10-22T22:04:03.618Z,100443.72
2022-10-22T22:06:34.490Z,100428.47
2022-10-22T22:09:03.767Z,100435.44
2022-10-22T22:11:31.830Z,100436.84
2022-10-22T22:14:00.275Z,100431.75
2022-10-22T22:16:33.108Z,100429.38
2022-10-22T22:21:32.304Z,100438.00
2022-10-22T22:23:59.911Z,100441.19
2022-10-22T22:26:30.285Z,100453.38
2022-10-22T22:28:59.542Z,100452.16
2022-10-22T22:31:32.533Z,100463.31
2022-10-22T22:34:05.565Z,100464.00
2022-10-22T22:36:38.938Z,100468.97
2022-10-22T22:39:08.181Z,100463.19
2022-10-22T22:41:35.984Z,100467.75
2022-10-22T22:44:04.575Z,100469.78
2022-10-22T22:46:32.577Z,100472.47
2022-10-22T22:49:00.177Z,100477.78
2022-10-22T22:51:29.085Z,100485.19
2022-10-22T22:53:58.943Z,100490.25
2022-10-22T22:56:30.838Z,100481.16
2022-10-22T22:59:00.838Z,100494.22
2022-10-22T23:01:30.911Z,100494.91
2022-10-22T23:04:11.101Z,100502.09
2022-10-22T23:06:40.782Z,100504.87
2022-10-22T23:09:13.798Z,100505.78
2022-10-22T23:11:44.218Z,100501.31
2022-10-22T23:14:16.653Z,100505.91
2022-10-22T23:16:47.391Z,100506.94
2022-10-22T23:19:19.120Z,100507.19
2022-10-22T23:21:50.998Z,100503.41
2022-10-22T23:24:24.333Z,100493.75
2022-10-22T23:26:56.302Z,100498.47
2022-10-22T23:29:27.345Z,100502.53
2022-10-22T23:31:55.854Z,100505.78
2022-10-22T23:34:27.268Z,100497.16
2022-10-22T23:36:56.401Z,100504.50
2022-10-22T23:39:27.694Z,100513.69
2022-10-22T23:41:58.386Z,100511.44
2022-10-22T23:44:26.166Z,100517.91
2022-10-22T23:46:53.972Z,100509.62
2022-10-22T23:49:21.709Z,100516.56
2022-10-22T23:51:49.259Z,100516.56
2022-10-22T23:54:20.832Z,100508.44
2022-10-22T23:56:48.723Z,100513.84
2022-10-22T23:59:19.130Z,100503.62
